createdAt,value
2022-08-28T00:02:25.405Z,21.20
2022-08-28T00:04:52.840Z,21.20
2022-08-28T00:07:20.191Z,21.20
2022-08-28T00:09:47.479Z,21.20
2022-08-28T00:12:14.804Z,21.20
2022-08-28T00:14:42.066Z,21.20
2022-08-28T00:17:09.321Z,21.10
2022-08-28T00:19:38.671Z,21.20
2022-08-28T00:22:07.525Z,21.20
2022-08-28T00:24:36.137Z,21.20
2022-08-28T00:27:22.712Z,21.20
2022-08-28T00:29:50.519Z,21.20
2022-08-28T00:32:17.881Z,21.20
2022-08-28T00:34:45.184Z,21.10
2022-08-28T00:37:12.548Z,21.10
2022-08-28T00:39:39.887Z,21.10
2022-08-28T00:42:08.196Z,21.10
2022-08-28T00:44:36.690Z,21.10
2022-08-28T00:47:04.154Z,21.10
2022-08-28T00:49:35.939Z,21.00
2022-08-28T00:52:12.194Z,21.00
2022-08-28T00:54:58.571Z,21.00
2022-08-28T00:57:28.606Z,21.00
2022-08-28T00:59:55.871Z,21.00
2022-08-28T01:02:23.216Z,21.00
2022-08-28T01:04:50.901Z,21.00
2022-08-28T01:07:18.501Z,21.00
2022-08-28T01:09:52.266Z,21.00
2022-08-28T01:12:32.114Z,21.00
2022-08-28T01:15:02.384Z,21.00
2022-08-28T01:17:32.944Z,20.90
2022-08-28T01:20:06.216Z,20.90
2022-08-28T01:22:44.382Z,20.90
2022-08-28T01:25:16.559Z,20.90
2022-08-28T01:27:44.148Z,20.90
2022-08-28T01:30:15.821Z,20.90
2022-08-28T01:32:47.208Z,20.90
2022-08-28T01:35:17.840Z,20.90
2022-08-28T01:37:45.750Z,20.90
2022-08-28T01:40:17.473Z,20.80
2022-08-28T01:42:44.977Z,20.80
2022-08-28T01:45:15.666Z,20.80
2022-08-28T01:47:44.672Z,20.80
2022-08-28T01:50:14.442Z,20.80
2022-08-28T01:52:42.065Z,20.80
2022-08-28T01:55:11.433Z,20.80
2022-08-28T01:57:46.602Z,20.80
2022-08-28T02:00:14.843Z,20.80
2022-08-28T02:02:42.359Z,20.80
2022-08-28T02:05:11.265Z,20.80
2022-08-28T02:07:41.310Z,20.80
2022-08-28T02:10:11.074Z,20.80
2022-08-28T02:12:38.950Z,20.80
2022-08-28T02:15:07.462Z,20.70
2022-08-28T02:17:34.938Z,20.60
2022-08-28T02:20:02.349Z,20.60
2022-08-28T02:22:29.711Z,20.60
2022-08-28T02:24:56.988Z,20.50
2022-08-28T02:27:24.286Z,20.50
2022-08-28T02:29:51.647Z,20.50
2022-08-28T02:32:18.990Z,20.50
2022-08-28T02:34:46.432Z,20.50
2022-08-28T02:37:13.739Z,20.50
2022-08-28T02:39:41.387Z,20.50
2022-08-28T02:42:08.618Z,20.50
2022-08-28T02:44:36.423Z,20.40
2022-08-28T02:47:05.283Z,20.40
2022-08-28T02:49:36.107Z,20.40
2022-08-28T02:52:06.719Z,20.40
2022-08-28T02:54:34.790Z,20.40
2022-08-28T02:57:02.077Z,20.40
2022-08-28T02:59:30.071Z,20.40
2022-08-28T03:01:57.981Z,20.40
2022-08-28T03:04:25.256Z,20.30
2022-08-28T03:06:52.506Z,20.30
2022-08-28T03:09:19.789Z,20.30
2022-08-28T03:11:47.090Z,20.30
2022-08-28T03:14:14.472Z,20.30
2022-08-28T03:16:41.830Z,20.30
2022-08-28T03:19:09.064Z,20.30
2022-08-28T03:21:36.371Z,20.20
2022-08-28T03:24:04.089Z,20.20
2022-08-28T03:26:31.434Z,20.20
2022-08-28T03:28:59.753Z,20.20
2022-08-28T03:31:30.105Z,20.10
2022-08-28T03:33:57.469Z,20.10
2022-08-28T03:36:27.042Z,20.00
2022-08-28T03:38:56.404Z,20.00
2022-08-28T03:41:25.437Z,20.00
2022-08-28T03:43:52.802Z,19.90
2022-08-28T03:46:23.840Z,19.90
2022-08-28T03:48:52.168Z,19.90
2022-08-28T03:51:29.990Z,19.90
2022-08-28T03:54:01.933Z,19.90
2022-08-28T03:56:30.679Z,19.80
2022-08-28T03:59:00.867Z,19.80
2022-08-28T04:01:28.550Z,19.80
2022-08-28T04:03:56.322Z,19.70
2022-08-28T04:06:23.784Z,19.70
2022-08-28T04:08:51.189Z,19.70
2022-08-28T04:11:18.582Z,19.60
2022-08-28T04:13:46.194Z,19.60
2022-08-28T04:16:16.646Z,19.60
2022-08-28T04:18:44.808Z,19.50
2022-08-28T04:21:15.403Z,19.50
2022-08-28T04:23:44.022Z,19.50
2022-08-28T04:26:14.684Z,19.40
2022-08-28T04:28:42.832Z,19.40
2022-08-28T04:31:10.175Z,19.40
2022-08-28T04:33:38.942Z,19.30
2022-08-28T04:36:11.222Z,19.30
2022-08-28T04:38:43.697Z,19.30
2022-08-28T04:41:14.202Z,19.30
2022-08-28T04:43:42.179Z,19.30
2022-08-28T04:46:12.511Z,19.20
2022-08-28T04:48:40.615Z,19.20
2022-08-28T04:51:09.861Z,19.20
2022-08-28T04:53:38.507Z,19.20
2022-08-28T04:56:08.488Z,19.20
2022-08-28T04:58:36.491Z,19.20
2022-08-28T05:01:11.190Z,19.20
2022-08-28T05:03:39.883Z,19.20
2022-08-28T05:06:07.779Z,19.20
2022-08-28T05:08:35.699Z,19.20
2022-08-28T05:11:24.533Z,19.20
2022-08-28T05:14:04.314Z,19.20
2022-08-28T05:16:34.386Z,19.20
2022-08-28T05:19:03.577Z,19.10
2022-08-28T05:21:30.826Z,19.20
2022-08-28T05:23:59.126Z,19.20
2022-08-28T05:26:28.354Z,19.20
2022-08-28T05:28:59.237Z,19.20
2022-08-28T05:31:29.597Z,19.20
2022-08-28T05:33:58.291Z,19.20
2022-08-28T05:36:32.528Z,19.20
2022-08-28T05:39:01.853Z,19.20
2022-08-28T05:41:30.725Z,19.20
2022-08-28T05:43:59.494Z,19.20
2022-08-28T05:46:28.253Z,19.20
2022-08-28T05:48:56.032Z,19.20
2022-08-28T05:51:26.269Z,19.20
2022-08-28T05:53:54.119Z,19.20
2022-08-28T05:56:24.888Z,19.20
2022-08-28T05:58:52.446Z,19.30
2022-08-28T06:01:28.690Z,19.30
2022-08-28T06:04:02.654Z,19.30
2022-08-28T06:06:34.194Z,19.40
2022-08-28T06:09:08.090Z,19.40
2022-08-28T06:11:35.727Z,19.40
2022-08-28T06:14:04.557Z,19.40
2022-08-28T06:16:32.615Z,19.40
2022-08-28T06:19:00.591Z,19.40
2022-08-28T06:21:29.003Z,19.50
2022-08-28T06:23:56.976Z,19.40
2022-08-28T06:26:24.460Z,19.50
2022-08-28T06:28:53.553Z,19.50
2022-08-28T06:31:24.602Z,19.50
2022-08-28T06:33:57.916Z,19.60
2022-08-28T06:36:27.894Z,19.60
2022-08-28T06:38:58.366Z,19.60
2022-08-28T06:41:28.737Z,19.70
2022-08-28T06:43:58.042Z,19.70
2022-08-28T06:46:26.629Z,19.70
2022-08-28T06:48:54.260Z,19.80
2022-08-28T06:51:23.166Z,19.80
2022-08-28T06:53:52.425Z,19.80
2022-08-28T06:56:26.215Z,19.90
2022-08-28T06:58:56.400Z,19.90
2022-08-28T07:01:35.305Z,20.00
2022-08-28T07:04:06.902Z,20.00
2022-08-28T07:06:39.637Z,20.00
2022-08-28T07:09:11.048Z,20.10
2022-08-28T07:11:39.515Z,20.20
2022-08-28T07:14:07.601Z,20.20
2022-08-28T07:16:38.302Z,20.30
2022-08-28T07:19:07.441Z,20.30
2022-08-28T07:21:38.670Z,20.40
2022-08-28T07:24:08.526Z,20.40
2022-08-28T07:26:36.179Z,20.40
2022-08-28T07:29:09.875Z,20.40
2022-08-28T07:31:46.258Z,20.40
2022-08-28T07:34:17.013Z,20.50
2022-08-28T07:36:44.995Z,20.50
2022-08-28T07:39:14.800Z,20.50
2022-08-28T07:41:43.081Z,20.60
2022-08-28T07:44:30.938Z,20.60
2022-08-28T07:47:01.107Z,20.60
2022-08-28T07:49:28.531Z,20.60
2022-08-28T07:51:56.461Z,20.70
2022-08-28T07:54:24.091Z,20.80
2022-08-28T07:56:52.863Z,20.90
2022-08-28T07:59:22.024Z,20.90
2022-08-28T08:01:51.614Z,21.00
2022-08-28T08:04:21.318Z,21.10
2022-08-28T08:06:53.235Z,21.10
2022-08-28T08:09:23.107Z,21.10
2022-08-28T08:11:50.925Z,21.10
2022-08-28T08:14:19.314Z,21.20
2022-08-28T08:16:48.071Z,21.20
2022-08-28T08:19:16.575Z,21.20
2022-08-28T08:21:46.460Z,21.20
2022-08-28T08:24:20.605Z,21.20
2022-08-28T08:26:50.809Z,21.20
2022-08-28T08:29:32.025Z,21.20
2022-08-28T08:32:05.769Z,21.20
2022-08-28T08:34:40.723Z,21.20
2022-08-28T08:37:08.890Z,21.20
2022-08-28T08:39:37.299Z,21.20
2022-08-28T08:42:10.403Z,21.20
2022-08-28T08:44:47.624Z,21.20
2022-08-28T08:47:47.179Z,21.20
2022-08-28T08:50:25.815Z,21.20
2022-08-28T08:53:24.462Z,21.20
2022-08-28T08:55:54.319Z,21.20
2022-08-28T08:58:39.963Z,21.20
2022-08-28T09:01:28.793Z,21.30
2022-08-28T09:04:11.597Z,21.30
2022-08-28T09:07:20.548Z,21.40
2022-08-28T09:09:53.380Z,21.40
2022-08-28T09:12:29.507Z,21.40
2022-08-28T09:15:12.771Z,21.30
2022-08-28T09:17:47.922Z,21.30
2022-08-28T09:20:21.447Z,21.20
2022-08-28T09:23:00.088Z,21.20
2022-08-28T09:25:51.450Z,21.10
2022-08-28T09:28:31.079Z,21.10
2022-08-28T09:31:00.779Z,21.10
2022-08-28T09:33:44.993Z,21.10
2022-08-28T09:36:29.706Z,21.10
2022-08-28T09:39:18.350Z,21.10
2022-08-28T09:42:11.691Z,21.10
2022-08-28T09:44:56.990Z,21.20
2022-08-28T09:47:57.139Z,21.10
2022-08-28T09:50:31.820Z,21.20
2022-08-28T09:53:16.001Z,21.20
2022-08-28T09:56:08.418Z,21.20
2022-08-28T09:58:42.609Z,21.20
2022-08-28T10:01:49.821Z,21.20
2022-08-28T10:04:41.767Z,21.20
2022-08-28T10:07:13.392Z,21.30
2022-08-28T10:09:54.738Z,21.40
2022-08-28T10:12:52.400Z,21.50
2022-08-28T10:16:09.621Z,21.60
2022-08-28T10:18:44.610Z,21.70
2022-08-28T10:21:28.081Z,21.80
2022-08-28T10:24:27.746Z,21.90
2022-08-28T10:27:01.901Z,21.90
2022-08-28T10:30:05.864Z,22.00
2022-08-28T10:33:12.896Z,22.10
2022-08-28T10:36:01.974Z,22.20
2022-08-28T10:38:40.121Z,22.30
2022-08-28T10:41:13.416Z,22.40
2022-08-28T10:43:48.086Z,22.50
2022-08-28T10:46:34.963Z,22.60
2022-08-28T10:49:27.021Z,22.70
2022-08-28T10:52:05.176Z,22.80
2022-08-28T10:54:57.644Z,22.90
2022-08-28T10:57:45.940Z,23.00
2022-08-28T11:00:18.085Z,23.10
2022-08-28T11:03:00.835Z,23.20
2022-08-28T11:05:56.314Z,23.30
2022-08-28T11:08:35.193Z,23.40
2022-08-28T11:11:06.651Z,23.50
2022-08-28T11:13:56.055Z,23.50
2022-08-28T11:16:28.265Z,23.60
2022-08-28T11:19:25.035Z,23.80
2022-08-28T11:22:02.750Z,23.90
2022-08-28T11:24:43.722Z,24.10
2022-08-28T11:27:31.110Z,24.20
2022-08-28T11:30:04.281Z,24.40
2022-08-28T11:32:31.507Z,24.50
2022-08-28T11:35:00.316Z,24.60
2022-08-28T11:37:51.435Z,24.80
2022-08-28T11:40:40.747Z,24.90
2022-08-28T11:43:17.027Z,25.10
2022-08-28T11:45:47.378Z,25.20
2022-08-28T11:48:33.725Z,25.40
2022-08-28T11:51:06.989Z,25.50
2022-08-28T11:54:21.213Z,25.60
2022-08-28T11:57:12.747Z,25.70
2022-08-28T11:59:47.006Z,25.80
2022-08-28T12:02:39.722Z,25.90
2022-08-28T12:05:11.107Z,25.90
2022-08-28T12:07:41.242Z,26.00
2022-08-28T12:10:20.618Z,26.00
2022-08-28T12:12:47.876Z,26.10
2022-08-28T12:15:27.412Z,26.20
2022-08-28T12:18:13.051Z,26.20
2022-08-28T12:21:19.313Z,26.30
2022-08-28T12:24:09.041Z,26.40
2022-08-28T12:26:42.558Z,26.50
2022-08-28T12:29:37.532Z,26.60
2022-08-28T12:32:36.374Z,26.80
2022-08-28T12:35:15.296Z,26.90
2022-08-28T12:37:52.319Z,27.00
2022-08-28T12:40:41.816Z,27.10
2022-08-28T12:43:15.204Z,27.20
2022-08-28T12:45:48.611Z,27.30
2022-08-28T12:48:27.657Z,27.30
2022-08-28T12:51:07.845Z,27.40
2022-08-28T12:53:44.427Z,27.40
2022-08-28T12:56:14.694Z,27.40
2022-08-28T12:58:42.883Z,27.40
2022-08-28T13:01:31.637Z,27.50
2022-08-28T13:04:02.428Z,27.50
2022-08-28T13:06:36.414Z,27.40
2022-08-28T13:09:07.250Z,27.40
2022-08-28T13:11:37.875Z,27.60
2022-08-28T13:14:08.029Z,28.10
2022-08-28T13:16:45.154Z,28.80
2022-08-28T13:19:35.165Z,29.70
2022-08-28T13:22:27.551Z,30.60
2022-08-28T13:25:00.068Z,31.60
2022-08-28T13:27:28.201Z,32.50
2022-08-28T13:30:04.507Z,33.30
2022-08-28T13:32:34.223Z,34.10
2022-08-28T13:35:07.560Z,34.80
2022-08-28T13:37:48.092Z,35.50
2022-08-28T13:40:53.440Z,36.20
2022-08-28T13:43:11.367Z,36.90
2022-08-28T13:45:43.463Z,37.60
2022-08-28T13:48:18.213Z,38.20
2022-08-28T13:50:49.476Z,38.80
2022-08-28T13:53:20.232Z,39.40
2022-08-28T13:55:50.205Z,40.00
2022-08-28T13:58:17.686Z,40.60
2022-08-28T14:00:47.593Z,41.10
2022-08-28T14:03:34.785Z,41.60
2022-08-28T14:06:03.996Z,42.10
2022-08-28T14:08:31.503Z,42.60
2022-08-28T14:10:58.930Z,43.10
2022-08-28T14:13:27.684Z,43.60
2022-08-28T14:15:56.536Z,43.90
2022-08-28T14:18:25.747Z,44.40
2022-08-28T14:20:53.307Z,44.60
2022-08-28T14:23:20.589Z,45.00
2022-08-28T14:25:49.128Z,45.30
2022-08-28T14:28:17.278Z,45.10
2022-08-28T14:30:50.269Z,44.50
2022-08-28T14:33:20.875Z,43.70
2022-08-28T14:35:49.166Z,43.00
2022-08-28T14:38:16.879Z,42.50
2022-08-28T14:40:44.913Z,42.50
2022-08-28T14:43:13.686Z,42.40
2022-08-28T14:45:49.668Z,42.20
2022-08-28T14:48:18.459Z,41.40
2022-08-28T14:50:48.254Z,40.50
2022-08-28T14:53:16.959Z,39.60
2022-08-28T14:55:49.752Z,38.80
2022-08-28T14:58:18.915Z,38.40
2022-08-28T15:00:50.038Z,38.80
2022-08-28T15:03:18.715Z,39.10
2022-08-28T15:05:46.708Z,39.60
2022-08-28T15:08:16.904Z,40.70
2022-08-28T15:10:45.224Z,41.60
2022-08-28T15:13:12.978Z,41.80
2022-08-28T15:15:42.574Z,42.30
2022-08-28T15:18:11.679Z,42.70
2022-08-28T15:20:44.978Z,42.90
2022-08-28T15:23:15.169Z,42.60
2022-08-28T15:25:42.824Z,42.10
2022-08-28T15:28:10.719Z,41.30
2022-08-28T15:30:39.259Z,41.10
2022-08-28T15:33:09.130Z,40.50
2022-08-28T15:35:37.185Z,39.50
2022-08-28T15:38:05.908Z,38.70
2022-08-28T15:40:52.869Z,37.50
2022-08-28T15:43:20.619Z,36.70
2022-08-28T15:45:48.043Z,35.70
2022-08-28T15:48:15.573Z,34.90
2022-08-28T15:50:43.805Z,34.50
2022-08-28T15:53:11.303Z,34.10
2022-08-28T15:55:38.586Z,33.50
2022-08-28T15:58:13.626Z,32.80
2022-08-28T16:00:42.559Z,32.50
2022-08-28T16:03:13.160Z,32.20
2022-08-28T16:05:40.908Z,31.50
2022-08-28T16:08:10.300Z,31.00
2022-08-28T16:10:37.985Z,30.70
2022-08-28T16:13:06.570Z,30.30
2022-08-28T16:15:34.462Z,30.10
2022-08-28T16:18:01.796Z,29.80
2022-08-28T16:20:29.162Z,29.50
2022-08-28T16:22:56.413Z,29.20
2022-08-28T16:25:23.637Z,29.00
2022-08-28T16:27:50.852Z,28.70
2022-08-28T16:30:18.688Z,28.50
2022-08-28T16:32:46.933Z,28.30
2022-08-28T16:35:15.675Z,28.10
2022-08-28T16:37:43.288Z,27.90
2022-08-28T16:40:11.819Z,27.80
2022-08-28T16:42:42.295Z,27.60
2022-08-28T16:45:19.027Z,27.40
2022-08-28T16:47:46.283Z,27.30
2022-08-28T16:50:14.219Z,27.20
2022-08-28T16:52:41.631Z,27.10
2022-08-28T16:55:12.055Z,26.90
2022-08-28T16:57:40.049Z,26.70
2022-08-28T17:00:12.323Z,26.60
2022-08-28T17:02:41.860Z,26.50
2022-08-28T17:05:09.763Z,26.30
2022-08-28T17:07:37.351Z,26.30
2022-08-28T17:10:04.936Z,26.10
2022-08-28T17:12:32.624Z,26.00
2022-08-28T17:15:00.507Z,26.00
2022-08-28T17:17:28.662Z,25.80
2022-08-28T17:19:56.493Z,25.70
2022-08-28T17:22:32.841Z,25.60
2022-08-28T17:25:07.592Z,25.50
2022-08-28T17:27:36.709Z,25.40
2022-08-28T17:30:05.040Z,25.40
2022-08-28T17:32:32.520Z,25.30
2022-08-28T17:35:00.189Z,25.20
2022-08-28T17:37:27.830Z,25.10
2022-08-28T17:39:55.261Z,25.00
2022-08-28T17:42:22.917Z,25.00
2022-08-28T17:44:50.451Z,24.90
2022-08-28T17:47:18.336Z,24.90
2022-08-28T17:49:53.499Z,24.80
2022-08-28T17:52:20.843Z,24.70
2022-08-28T17:54:48.101Z,24.60
2022-08-28T17:57:16.614Z,24.60
2022-08-28T17:59:43.973Z,24.50
2022-08-28T18:02:11.610Z,24.50
2022-08-28T18:04:38.926Z,24.40
2022-08-28T18:07:06.197Z,24.30
2022-08-28T18:09:33.495Z,24.20
2022-08-28T18:12:02.523Z,24.20
2022-08-28T18:14:30.145Z,24.20
2022-08-28T18:16:57.498Z,24.10
2022-08-28T18:19:25.506Z,24.10
2022-08-28T18:21:53.627Z,23.90
2022-08-28T18:24:21.095Z,23.90
2022-08-28T18:26:48.703Z,23.80
2022-08-28T18:29:16.328Z,23.70
2022-08-28T18:31:43.967Z,23.70
2022-08-28T18:34:11.977Z,23.60
2022-08-28T18:36:41.622Z,23.60
2022-08-28T18:39:10.291Z,23.50
2022-08-28T18:41:44.054Z,23.40
2022-08-28T18:44:13.861Z,23.40
2022-08-28T18:46:42.565Z,23.30
2022-08-28T18:49:11.443Z,23.20
2022-08-28T18:51:40.438Z,23.20
2022-08-28T18:54:07.911Z,23.10
2022-08-28T18:56:36.155Z,23.10
2022-08-28T18:59:06.461Z,23.00
2022-08-28T19:01:33.998Z,23.00
2022-08-28T19:04:01.510Z,22.90
2022-08-28T19:06:28.977Z,22.80
2022-08-28T19:08:56.259Z,22.80
2022-08-28T19:11:23.950Z,22.80
2022-08-28T19:13:51.348Z,22.70
2022-08-28T19:16:20.521Z,22.70
2022-08-28T19:18:51.471Z,22.60
2022-08-28T19:21:20.831Z,22.60
2022-08-28T19:23:55.770Z,22.50
2022-08-28T19:26:24.919Z,22.50
2022-08-28T19:28:53.074Z,22.50
2022-08-28T19:31:20.659Z,22.40
2022-08-28T19:33:48.267Z,22.40
2022-08-28T19:36:15.801Z,22.30
2022-08-28T19:38:43.342Z,22.30
2022-08-28T19:41:11.800Z,22.30
2022-08-28T19:43:43.114Z,22.20
2022-08-28T19:46:19.838Z,22.10
2022-08-28T19:48:52.265Z,22.10
2022-08-28T19:51:22.476Z,22.00
2022-08-28T19:53:59.038Z,22.00
2022-08-28T19:56:29.024Z,22.00
2022-08-28T19:58:59.404Z,21.90
2022-08-28T20:01:29.724Z,21.90
2022-08-28T20:03:59.007Z,21.80
2022-08-28T20:06:28.040Z,21.80
2022-08-28T20:08:55.988Z,21.80
2022-08-28T20:11:30.216Z,21.80
2022-08-28T20:14:04.255Z,21.70
2022-08-28T20:16:38.421Z,21.70
2022-08-28T20:19:08.032Z,21.70
2022-08-28T20:21:38.221Z,21.70
2022-08-28T20:24:10.245Z,21.60
2022-08-28T20:26:37.727Z,21.50
2022-08-28T20:29:07.075Z,21.50
2022-08-28T20:31:35.419Z,21.50
2022-08-28T20:34:02.835Z,21.40
2022-08-28T20:36:30.071Z,21.40
2022-08-28T20:38:57.437Z,21.40
2022-08-28T20:41:24.894Z,21.40
2022-08-28T20:43:52.228Z,21.30
2022-08-28T20:46:19.721Z,21.30
2022-08-28T20:48:47.296Z,21.30
2022-08-28T20:51:14.654Z,21.20
2022-08-28T20:53:42.015Z,21.10
2022-08-28T20:56:10.495Z,21.10
2022-08-28T20:58:38.113Z,21.00
2022-08-28T21:01:05.659Z,21.00
2022-08-28T21:03:33.124Z,20.90
2022-08-28T21:06:00.482Z,21.00
2022-08-28T21:08:27.796Z,20.90
2022-08-28T21:10:55.074Z,20.90
2022-08-28T21:13:23.291Z,20.80
2022-08-28T21:15:50.550Z,20.80
2022-08-28T21:18:18.054Z,20.80
2022-08-28T21:20:46.489Z,20.70
2022-08-28T21:23:14.021Z,20.70
2022-08-28T21:25:41.599Z,20.70
2022-08-28T21:28:08.984Z,20.70
2022-08-28T21:30:37.471Z,20.70
2022-08-28T21:33:05.257Z,20.70
2022-08-28T21:35:32.768Z,20.50
2022-08-28T21:38:00.148Z,20.50
2022-08-28T21:40:30.464Z,20.40
2022-08-28T21:42:58.067Z,20.40
2022-08-28T21:45:25.465Z,20.40
2022-08-28T21:47:52.878Z,20.40
2022-08-28T21:50:20.695Z,20.30
2022-08-28T21:52:48.010Z,20.30
2022-08-28T21:55:16.231Z,20.30
2022-08-28T21:57:44.607Z,20.20
2022-08-28T22:00:17.285Z,20.20
2022-08-28T22:02:44.873Z,20.20
2022-08-28T22:05:13.116Z,20.10
2022-08-28T22:07:45.041Z,20.10
2022-08-28T22:10:12.434Z,20.00
2022-08-28T22:12:39.871Z,20.00
2022-08-28T22:15:07.568Z,20.00
2022-08-28T22:17:34.887Z,19.90
2022-08-28T22:20:02.806Z,19.80
2022-08-28T22:22:48.592Z,19.90
2022-08-28T22:25:15.917Z,19.80
2022-08-28T22:27:43.252Z,19.80
2022-08-28T22:30:11.017Z,19.80
2022-08-28T22:32:38.401Z,19.70
2022-08-28T22:35:06.184Z,19.70
2022-08-28T22:37:33.596Z,19.70
2022-08-28T22:40:00.885Z,19.70
2022-08-28T22:42:28.259Z,19.70
2022-08-28T22:44:55.598Z,19.70
2022-08-28T22:47:23.438Z,19.70
2022-08-28T22:49:50.715Z,19.70
2022-08-28T22:52:18.071Z,19.60
2022-08-28T22:54:45.606Z,19.50
2022-08-28T22:57:14.183Z,19.50
2022-08-28T22:59:42.142Z,19.50
2022-08-28T23:02:12.016Z,19.40
2022-08-28T23:04:39.787Z,19.40
2022-08-28T23:07:07.158Z,19.40
2022-08-28T23:09:36.097Z,19.40
2022-08-28T23:12:07.766Z,19.30
2022-08-28T23:14:35.036Z,19.30
2022-08-28T23:17:02.431Z,19.30
2022-08-28T23:19:30.336Z,19.30
2022-08-28T23:21:57.636Z,19.20
2022-08-28T23:24:24.969Z,19.10
2022-08-28T23:26:52.439Z,19.10
2022-08-28T23:29:19.734Z,19.10
2022-08-28T23:31:48.001Z,19.00
2022-08-28T23:34:15.430Z,19.00
2022-08-28T23:36:43.504Z,19.00
2022-08-28T23:39:11.359Z,18.90
2022-08-28T23:41:38.935Z,18.90
2022-08-28T23:44:09.010Z,18.90
2022-08-28T23:46:36.857Z,18.90
2022-08-28T23:49:09.102Z,18.90
2022-08-28T23:51:36.420Z,18.90
2022-08-28T23:54:03.811Z,18.90
2022-08-28T23:56:31.735Z,18.90
2022-08-28T23:58:59.102Z,18.80
